createdAt,value
2022-09-28T00:01:19.898Z,82.05
2022-09-28T00:03:50.374Z,82.08
2022-09-28T00:06:21.730Z,82.14
2022-09-28T00:08:50.320Z,82.30
2022-09-28T00:11:20.947Z,82.29
2022-09-28T00:13:52.471Z,82.20
2022-09-28T00:16:27.074Z,82.15
2022-09-28T00:18:55.491Z,82.15
2022-09-28T00:21:25.949Z,82.09
2022-09-28T00:24:15.801Z,82.05
2022-09-28T00:26:55.318Z,82.12
2022-09-28T00:29:30.040Z,82.14
2022-09-28T00:32:03.135Z,82.14
2022-09-28T00:34:41.436Z,82.19
2022-09-28T00:37:10.202Z,82.15
2022-09-28T00:39:41.454Z,82.27
2022-09-28T00:42:16.445Z,82.24
2022-09-28T00:44:58.361Z,82.19
2022-09-28T00:47:41.565Z,82.39
2022-09-28T00:50:18.741Z,82.63
2022-09-28T00:57:09.897Z,83.54
2022-09-28T00:59:38.364Z,83.72
2022-09-28T01:02:06.941Z,84.00
2022-09-28T01:04:38.820Z,84.35
2022-09-28T01:07:09.330Z,84.46
2022-09-28T01:09:40.828Z,84.68
2022-09-28T01:12:09.235Z,84.77
2022-09-28T01:14:38.744Z,84.84
2022-09-28T01:17:58.124Z,85.22
2022-09-28T01:21:07.365Z,84.03
2022-09-28T01:24:09.844Z,84.12
2022-09-28T01:26:59.000Z,84.71
2022-09-28T01:29:41.684Z,84.63
2022-09-28T01:32:13.611Z,84.76
2022-09-28T01:34:51.205Z,85.15
2022-09-28T01:37:22.624Z,85.56
2022-09-28T01:39:52.862Z,85.71
2022-09-28T01:42:27.515Z,85.76
2022-09-28T01:45:01.653Z,85.88
2022-09-28T01:47:37.842Z,86.09
2022-09-28T01:50:14.646Z,86.47
2022-09-28T01:52:49.575Z,86.84
2022-09-28T01:55:42.613Z,87.10
2022-09-28T01:58:37.085Z,87.47
2022-09-28T02:01:15.456Z,87.46
2022-09-28T02:03:55.873Z,87.43
2022-09-28T02:06:34.262Z,87.75
2022-09-28T02:09:10.679Z,87.97
2022-09-28T02:11:49.091Z,88.15
2022-09-28T02:14:19.921Z,88.34
2022-09-28T02:16:51.088Z,88.20
2022-09-28T02:19:28.369Z,88.06
2022-09-28T02:22:34.964Z,88.30
2022-09-28T02:25:20.151Z,88.23
2022-09-28T02:27:54.029Z,88.31
2022-09-28T02:30:52.251Z,88.25
2022-09-28T02:33:25.625Z,88.33
2022-09-28T02:35:53.899Z,88.31
2022-09-28T02:38:22.566Z,88.55
2022-09-28T02:41:13.916Z,88.58
2022-09-28T02:43:53.207Z,88.73
2022-09-28T02:46:35.295Z,88.99
2022-09-28T02:49:29.852Z,88.76
2022-09-28T02:52:00.923Z,88.89
2022-09-28T02:54:54.794Z,88.75
2022-09-28T02:57:41.291Z,88.66
2022-09-28T03:00:17.775Z,88.78
2022-09-28T03:03:16.354Z,88.93
2022-09-28T03:05:53.076Z,88.81
2022-09-28T03:08:32.563Z,89.03
2022-09-28T03:11:09.766Z,88.93
2022-09-28T03:13:38.414Z,89.19
2022-09-28T03:16:08.229Z,89.12
2022-09-28T03:18:36.559Z,89.38
2022-09-28T03:21:06.156Z,89.44
2022-09-28T03:23:34.493Z,89.44
2022-09-28T03:26:02.926Z,89.50
2022-09-28T03:28:31.425Z,89.61
2022-09-28T03:30:59.654Z,89.33
2022-09-28T03:33:27.979Z,89.19
2022-09-28T03:35:56.147Z,89.27
2022-09-28T03:38:25.087Z,89.08
2022-09-28T03:40:57.606Z,89.07
2022-09-28T03:43:27.540Z,89.12
2022-09-28T03:46:01.377Z,89.12
2022-09-28T03:48:33.173Z,89.08
2022-09-28T03:51:04.638Z,89.04
2022-09-28T03:53:33.750Z,89.26
2022-09-28T03:56:07.822Z,89.22
2022-09-28T03:58:36.570Z,89.20
2022-09-28T04:01:08.097Z,89.30
2022-09-28T04:03:37.443Z,89.43
2022-09-28T04:06:06.112Z,89.63
2022-09-28T04:08:34.295Z,89.48
2022-09-28T04:11:02.782Z,89.59
2022-09-28T04:13:31.697Z,89.70
2022-09-28T04:16:01.717Z,89.92
2022-09-28T04:18:33.954Z,90.11
2022-09-28T04:21:12.978Z,90.33
2022-09-28T04:23:45.446Z,90.29
2022-09-28T04:26:17.007Z,90.47
2022-09-28T04:29:06.821Z,90.53
2022-09-28T04:31:50.190Z,90.69
2022-09-28T04:34:21.971Z,90.80
2022-09-28T04:36:51.330Z,91.01
2022-09-28T04:39:20.135Z,91.33
2022-09-28T04:41:51.339Z,91.40
2022-09-28T04:44:19.909Z,91.70
2022-09-28T04:46:51.763Z,91.51
2022-09-28T04:49:32.003Z,91.82
2022-09-28T04:52:07.713Z,91.71
2022-09-28T04:54:36.505Z,91.65
2022-09-28T04:57:06.227Z,91.66
2022-09-28T04:59:34.434Z,91.58
2022-09-28T05:02:02.682Z,91.81
2022-09-28T05:04:49.426Z,91.85
2022-09-28T05:07:36.966Z,91.99
2022-09-28T05:10:32.167Z,92.18
2022-09-28T05:13:02.312Z,92.32
2022-09-28T05:16:00.601Z,92.55
2022-09-28T05:18:57.334Z,92.34
2022-09-28T05:21:26.679Z,92.56
2022-09-28T05:23:56.794Z,92.54
2022-09-28T05:26:50.016Z,92.66
2022-09-28T05:29:18.250Z,92.68
2022-09-28T05:31:52.470Z,92.46
2022-09-28T05:34:40.842Z,92.52
2022-09-28T05:37:11.974Z,92.58
2022-09-28T05:39:40.566Z,92.53
2022-09-28T05:42:08.749Z,92.76
2022-09-28T05:44:38.633Z,92.56
2022-09-28T05:47:06.909Z,92.74
2022-09-28T05:49:35.073Z,92.76
2022-09-28T05:52:04.338Z,92.89
2022-09-28T05:54:36.110Z,93.15
2022-09-28T05:57:30.392Z,93.12
2022-09-28T05:59:58.865Z,93.05
2022-09-28T06:02:56.324Z,92.95
2022-09-28T06:05:25.197Z,93.17
2022-09-28T06:07:56.333Z,93.12
2022-09-28T06:11:14.791Z,93.02
2022-09-28T06:13:42.897Z,93.05
2022-09-28T06:16:43.837Z,92.85
2022-09-28T06:19:13.111Z,92.65
2022-09-28T06:21:59.617Z,93.05
2022-09-28T06:24:28.217Z,93.26
2022-09-28T06:26:56.446Z,93.17
2022-09-28T06:29:54.241Z,93.21
2022-09-28T06:32:29.893Z,93.22
2022-09-28T06:35:23.850Z,93.20
2022-09-28T06:37:53.438Z,93.55
2022-09-28T06:40:22.608Z,93.37
2022-09-28T06:43:10.167Z,93.29
2022-09-28T06:45:57.112Z,93.29
2022-09-28T06:48:45.779Z,93.34
2022-09-28T06:51:18.507Z,93.34
2022-09-28T06:54:25.889Z,93.65
2022-09-28T06:57:22.983Z,93.56
2022-09-28T06:59:51.191Z,93.51
2022-09-28T07:02:20.387Z,93.72
2022-09-28T07:05:03.919Z,93.55
2022-09-28T07:07:56.887Z,93.23
2022-09-28T07:10:44.298Z,93.16
2022-09-28T07:13:49.886Z,93.07
2022-09-28T07:16:24.278Z,93.20
2022-09-28T07:18:55.009Z,93.11
2022-09-28T07:21:29.663Z,93.04
2022-09-28T07:24:00.809Z,93.17
2022-09-28T07:26:47.259Z,93.19
2022-09-28T07:30:01.296Z,93.19
2022-09-28T07:32:45.855Z,92.64
2022-09-28T07:35:24.284Z,92.59
2022-09-28T07:38:03.689Z,92.23
2022-09-28T07:40:53.065Z,92.01
2022-09-28T07:43:24.461Z,92.09
2022-09-28T07:45:55.073Z,92.05
2022-09-28T07:48:23.433Z,92.12
2022-09-28T07:51:11.934Z,91.88
2022-09-28T07:53:42.633Z,91.88
2022-09-28T07:56:32.065Z,92.12
2022-09-28T07:59:34.332Z,91.83
2022-09-28T08:02:21.796Z,91.24
2022-09-28T08:04:50.473Z,90.91
2022-09-28T08:07:23.460Z,90.88
2022-09-28T08:09:57.898Z,90.64
2022-09-28T08:13:00.683Z,91.00
2022-09-28T08:16:08.551Z,91.17
2022-09-28T08:18:49.110Z,91.02
2022-09-28T08:21:35.925Z,91.04
2022-09-28T08:24:33.086Z,90.98
2022-09-28T08:27:02.053Z,90.80
2022-09-28T08:30:00.255Z,91.03
2022-09-28T08:32:53.301Z,91.29
2022-09-28T08:35:28.325Z,90.91
2022-09-28T08:38:15.551Z,90.89
2022-09-28T08:41:17.848Z,91.08
2022-09-28T08:44:24.471Z,90.79
2022-09-28T08:47:39.447Z,90.88
2022-09-28T08:50:41.824Z,91.04
2022-09-28T08:53:57.057Z,91.55
2022-09-28T08:56:47.742Z,91.55
2022-09-28T08:59:22.500Z,91.65
2022-09-28T09:02:01.501Z,91.87
2022-09-28T09:04:33.411Z,92.10
2022-09-28T09:07:29.699Z,92.18
2022-09-28T09:10:35.505Z,92.17
2022-09-28T09:13:16.947Z,92.18
2022-09-28T09:16:15.330Z,92.36
2022-09-28T09:19:33.324Z,92.48
2022-09-28T09:22:51.112Z,92.62
2022-09-28T09:25:26.548Z,92.60
2022-09-28T09:28:09.439Z,92.34
2022-09-28T09:31:00.286Z,91.87
2022-09-28T09:33:52.260Z,91.58
2022-09-28T09:36:49.503Z,91.34
2022-09-28T09:40:05.504Z,91.48
2022-09-28T09:43:29.518Z,91.72
2022-09-28T09:46:28.568Z,91.63
2022-09-28T09:49:13.199Z,92.02
2022-09-28T09:51:52.851Z,91.94
2022-09-28T09:54:34.192Z,91.86
2022-09-28T09:57:14.645Z,91.62
2022-09-28T09:59:49.896Z,91.58
2022-09-28T10:02:26.320Z,91.48
2022-09-28T10:05:13.576Z,91.33
2022-09-28T10:07:54.950Z,91.31
2022-09-28T10:10:30.257Z,91.44
2022-09-28T10:13:09.525Z,91.60
2022-09-28T10:15:40.289Z,91.54
2022-09-28T10:18:35.225Z,91.28
2022-09-28T10:21:23.960Z,91.22
2022-09-28T10:24:02.916Z,91.29
2022-09-28T10:26:39.385Z,91.21
2022-09-28T10:29:20.156Z,91.26
2022-09-28T10:31:50.841Z,90.96
2022-09-28T10:35:19.505Z,90.91
2022-09-28T10:38:04.656Z,90.71
2022-09-28T10:41:00.192Z,90.10
2022-09-28T10:44:06.852Z,90.08
2022-09-28T10:47:01.392Z,90.31
2022-09-28T10:49:47.346Z,89.89
2022-09-28T10:52:36.962Z,89.61
2022-09-28T10:55:26.855Z,89.31
2022-09-28T10:57:55.163Z,88.89
2022-09-28T11:00:49.993Z,88.50
2022-09-28T11:03:24.663Z,88.01
2022-09-28T11:05:56.037Z,87.21
2022-09-28T11:08:46.001Z,86.72
2022-09-28T11:11:24.857Z,85.98
2022-09-28T11:14:01.522Z,84.42
2022-09-28T11:16:34.728Z,83.74
2022-09-28T11:19:27.998Z,82.92
2022-09-28T11:21:56.143Z,81.08
2022-09-28T11:24:31.643Z,78.77
2022-09-28T11:27:02.286Z,77.36
2022-09-28T11:29:51.503Z,75.07
2022-09-28T11:32:25.552Z,74.79
2022-09-28T11:35:32.908Z,73.95
2022-09-28T11:38:25.520Z,74.49
2022-09-28T11:41:48.303Z,74.14
2022-09-28T11:44:17.585Z,74.22
2022-09-28T11:47:00.932Z,73.73
2022-09-28T11:49:43.937Z,71.57
2022-09-28T11:52:58.930Z,68.38
2022-09-28T11:55:36.310Z,66.00
2022-09-28T11:58:10.318Z,66.88
2022-09-28T12:00:45.018Z,68.00
2022-09-28T12:03:18.498Z,68.18
2022-09-28T12:06:02.537Z,68.34
2022-09-28T12:08:35.286Z,68.40
2022-09-28T12:11:20.327Z,68.85
2022-09-28T12:14:23.480Z,67.94
2022-09-28T12:17:06.846Z,68.97
2022-09-28T12:19:50.946Z,69.71
2022-09-28T12:22:30.136Z,69.77
2022-09-28T12:24:59.390Z,69.86
2022-09-28T12:27:33.720Z,69.33
2022-09-28T12:30:14.218Z,69.98
2022-09-28T12:32:48.461Z,70.13
2022-09-28T12:35:54.236Z,69.78
2022-09-28T12:39:14.708Z,68.92
2022-09-28T12:42:18.431Z,66.07
2022-09-28T12:45:19.580Z,63.40
2022-09-28T12:48:08.277Z,61.95
2022-09-28T12:50:41.723Z,60.08
2022-09-28T12:53:32.305Z,60.83
2022-09-28T12:56:22.062Z,61.00
2022-09-28T12:58:56.189Z,61.81
2022-09-28T13:01:46.787Z,63.17
2022-09-28T13:04:39.597Z,64.05
2022-09-28T13:07:19.999Z,64.65
2022-09-28T13:10:23.361Z,65.00
2022-09-28T13:13:15.543Z,65.82
2022-09-28T13:15:46.695Z,66.33
2022-09-28T13:18:29.325Z,66.39
2022-09-28T13:21:20.338Z,64.88
2022-09-28T13:23:57.861Z,63.20
2022-09-28T13:26:40.552Z,62.72
2022-09-28T13:29:14.782Z,63.38
2022-09-28T13:31:50.690Z,63.78
2022-09-28T13:34:39.580Z,63.52
2022-09-28T13:37:24.381Z,63.86
2022-09-28T13:39:59.971Z,63.87
2022-09-28T13:42:46.298Z,62.59
2022-09-28T13:45:26.739Z,62.82
2022-09-28T13:48:04.983Z,61.20
2022-09-28T13:50:48.418Z,60.51
2022-09-28T13:53:36.886Z,60.39
2022-09-28T13:56:24.699Z,59.10
2022-09-28T13:59:05.418Z,58.79
2022-09-28T14:01:41.059Z,58.83
2022-09-28T14:04:22.018Z,58.86
2022-09-28T14:06:55.504Z,59.02
2022-09-28T14:09:24.062Z,59.28
2022-09-28T14:12:02.758Z,60.18
2022-09-28T14:14:52.119Z,59.73
2022-09-28T14:17:23.665Z,60.19
2022-09-28T14:20:15.588Z,60.44
2022-09-28T14:22:58.061Z,60.92
2022-09-28T14:25:44.532Z,61.03
2022-09-28T14:28:46.042Z,61.83
2022-09-28T14:31:32.608Z,62.26
2022-09-28T14:34:03.538Z,62.60
2022-09-28T14:37:06.419Z,63.02
2022-09-28T14:39:55.872Z,62.96
2022-09-28T14:42:25.998Z,63.20
2022-09-28T14:45:06.365Z,62.64
2022-09-28T14:47:55.956Z,62.29
2022-09-28T14:50:27.219Z,62.45
2022-09-28T14:53:04.415Z,62.31
2022-09-28T14:55:41.175Z,62.54
2022-09-28T14:58:19.161Z,62.76
2022-09-28T15:00:50.423Z,63.05
2022-09-28T15:03:20.887Z,63.66
2022-09-28T15:06:40.547Z,64.06
2022-09-28T15:09:26.387Z,64.52
2022-09-28T15:12:02.789Z,64.96
2022-09-28T15:14:34.543Z,65.17
2022-09-28T15:17:10.817Z,65.37
2022-09-28T15:20:14.019Z,65.42
2022-09-28T15:22:47.200Z,65.55
2022-09-28T15:25:20.139Z,65.84
2022-09-28T15:28:13.395Z,66.06
2022-09-28T15:30:41.582Z,66.37
2022-09-28T15:33:42.910Z,66.36
2022-09-28T15:36:39.991Z,66.54
2022-09-28T15:39:15.452Z,66.58
2022-09-28T15:41:46.444Z,66.79
2022-09-28T15:44:30.100Z,66.81
2022-09-28T15:47:10.023Z,66.78
2022-09-28T15:49:44.494Z,67.16
2022-09-28T15:52:47.291Z,67.10
2022-09-28T15:55:27.724Z,67.17
2022-09-28T15:58:05.877Z,67.42
2022-09-28T16:00:35.106Z,67.79
2022-09-28T16:03:09.381Z,68.14
2022-09-28T16:05:48.461Z,68.47
2022-09-28T16:08:26.034Z,68.49
2022-09-28T16:11:10.987Z,68.89
2022-09-28T16:14:06.251Z,69.13
2022-09-28T16:16:46.960Z,69.58
2022-09-28T16:19:24.196Z,69.87
2022-09-28T16:21:56.754Z,69.95
2022-09-28T16:24:30.506Z,70.24
2022-09-28T16:27:02.715Z,70.41
2022-09-28T16:29:40.302Z,70.42
2022-09-28T16:32:26.728Z,70.47
2022-09-28T16:35:13.060Z,70.61
2022-09-28T16:37:42.851Z,71.28
2022-09-28T16:40:12.511Z,71.51
2022-09-28T16:42:48.686Z,71.57
2022-09-28T16:45:23.934Z,71.84
2022-09-28T16:47:53.029Z,71.87
2022-09-28T16:50:22.163Z,71.86
2022-09-28T16:53:17.739Z,72.21
2022-09-28T16:55:48.441Z,72.32
2022-09-28T16:58:16.892Z,72.10
2022-09-28T17:00:45.910Z,72.38
2022-09-28T17:03:17.885Z,72.39
2022-09-28T17:05:48.158Z,72.70
2022-09-28T17:08:18.519Z,72.80
2022-09-28T17:11:13.867Z,73.03
2022-09-28T17:13:45.290Z,73.18
2022-09-28T17:16:17.955Z,73.50
2022-09-28T17:18:48.392Z,73.99
2022-09-28T17:21:19.306Z,74.15
2022-09-28T17:23:49.671Z,74.21
2022-09-28T17:26:27.393Z,74.37
2022-09-28T17:28:55.597Z,74.49
2022-09-28T17:31:23.917Z,74.80
2022-09-28T17:33:52.456Z,74.71
2022-09-28T17:36:21.640Z,74.74
2022-09-28T17:38:51.836Z,74.77
2022-09-28T17:41:21.233Z,74.84
2022-09-28T17:43:49.835Z,75.11
2022-09-28T17:46:30.185Z,75.16
2022-09-28T17:49:00.233Z,75.18
2022-09-28T17:51:30.498Z,75.37
2022-09-28T17:54:01.105Z,75.33
2022-09-28T17:56:32.518Z,75.25
2022-09-28T17:59:03.949Z,75.52
2022-09-28T18:01:34.802Z,75.53
2022-09-28T18:04:09.026Z,75.75
2022-09-28T18:06:37.523Z,75.81
2022-09-28T18:09:05.981Z,75.85
2022-09-28T18:11:35.356Z,75.67
2022-09-28T18:14:06.726Z,75.80
2022-09-28T18:16:37.390Z,76.01
2022-09-28T18:19:05.559Z,76.13
2022-09-28T18:21:33.836Z,76.35
2022-09-28T18:24:02.277Z,76.48
2022-09-28T18:26:30.623Z,76.62
2022-09-28T18:28:58.799Z,76.63
2022-09-28T18:31:27.955Z,76.70
2022-09-28T18:34:01.108Z,76.81
2022-09-28T18:36:30.992Z,76.59
2022-09-28T18:39:01.638Z,76.74
2022-09-28T18:41:29.847Z,76.78
2022-09-28T18:44:01.015Z,76.75
2022-09-28T18:46:36.916Z,76.96
2022-09-28T18:49:05.259Z,77.09
2022-09-28T18:51:33.400Z,77.16
2022-09-28T18:54:06.868Z,77.11
2022-09-28T18:56:37.452Z,77.15
2022-09-28T18:59:11.725Z,77.27
2022-09-28T19:01:42.096Z,77.26
2022-09-28T19:04:11.476Z,77.26
2022-09-28T19:06:41.952Z,77.42
2022-09-28T19:09:10.676Z,77.59
2022-09-28T19:11:38.924Z,77.75
2022-09-28T19:14:07.074Z,77.87
2022-09-28T19:16:35.316Z,77.61
2022-09-28T19:19:03.664Z,77.51
2022-09-28T19:21:32.091Z,77.65
2022-09-28T19:24:01.413Z,77.78
2022-09-28T19:26:30.573Z,77.85
2022-09-28T19:28:59.294Z,78.03
2022-09-28T19:31:27.703Z,78.10
2022-09-28T19:33:55.954Z,77.98
2022-09-28T19:36:28.693Z,78.04
2022-09-28T19:39:02.914Z,78.19
2022-09-28T19:41:51.632Z,78.28
2022-09-28T19:44:29.866Z,78.26
2022-09-28T19:47:26.799Z,78.36
2022-09-28T19:49:55.106Z,78.41
2022-09-28T19:52:48.210Z,78.63
2022-09-28T19:55:17.436Z,78.69
2022-09-28T19:57:47.842Z,78.46
2022-09-28T20:00:16.925Z,78.53
2022-09-28T20:02:45.268Z,78.53
2022-09-28T20:05:13.598Z,78.38
2022-09-28T20:07:41.750Z,78.26
2022-09-28T20:10:12.093Z,78.17
2022-09-28T20:12:42.321Z,78.06
2022-09-28T20:15:10.771Z,78.03
2022-09-28T20:17:39.196Z,77.87
2022-09-28T20:20:07.725Z,77.66
2022-09-28T20:22:37.159Z,77.75
2022-09-28T20:25:05.706Z,77.76
2022-09-28T20:27:33.937Z,77.67
2022-09-28T20:30:02.707Z,77.88
2022-09-28T20:32:35.874Z,77.64
2022-09-28T20:35:04.538Z,77.65
2022-09-28T20:37:33.693Z,77.68
2022-09-28T20:40:02.211Z,77.81
2022-09-28T20:42:32.120Z,77.91
2022-09-28T20:45:00.417Z,77.94
2022-09-28T20:47:28.609Z,78.09
2022-09-28T20:49:56.855Z,77.94
2022-09-28T20:52:25.215Z,77.87
2022-09-28T20:54:53.416Z,77.80
2022-09-28T20:57:21.719Z,77.87
2022-09-28T20:59:53.765Z,77.84
2022-09-28T21:02:23.093Z,77.68
2022-09-28T21:04:51.808Z,77.71
2022-09-28T21:07:20.005Z,77.75
2022-09-28T21:09:48.562Z,77.83
2022-09-28T21:12:17.277Z,78.01
2022-09-28T21:15:13.804Z,78.10
2022-09-28T21:18:08.608Z,78.22
2022-09-28T21:20:36.727Z,78.34
2022-09-28T21:23:05.049Z,78.66
2022-09-28T21:25:36.404Z,78.77
2022-09-28T21:28:04.452Z,79.00
2022-09-28T21:30:57.602Z,79.25
2022-09-28T21:33:50.868Z,79.51
2022-09-28T21:36:19.096Z,79.62
2022-09-28T21:38:47.248Z,79.92
2022-09-28T21:41:41.084Z,80.02
2022-09-28T21:44:09.567Z,80.23
2022-09-28T21:46:38.787Z,80.41
2022-09-28T21:49:58.598Z,80.66
2022-09-28T21:52:26.916Z,80.95
2022-09-28T21:54:55.208Z,81.24
2022-09-28T21:57:23.431Z,81.45
2022-09-28T21:59:51.690Z,81.55
2022-09-28T22:02:50.627Z,81.54
2022-09-28T22:05:20.165Z,81.74
2022-09-28T22:07:48.398Z,81.48
2022-09-28T22:10:16.670Z,81.57
2022-09-28T22:12:44.909Z,82.01
2022-09-28T22:15:13.049Z,82.17
2022-09-28T22:17:41.161Z,82.10
2022-09-28T22:20:09.393Z,82.15
2022-09-28T22:23:07.821Z,82.26
2022-09-28T22:25:35.909Z,82.42
2022-09-28T22:28:04.102Z,82.67
2022-09-28T22:30:34.721Z,83.03
2022-09-28T22:33:53.955Z,83.15
2022-09-28T22:36:50.185Z,83.29
2022-09-28T22:39:18.377Z,83.61
2022-09-28T22:42:38.277Z,83.82
2022-09-28T22:45:07.070Z,83.85
2022-09-28T22:48:00.423Z,84.08
2022-09-28T22:50:28.619Z,84.46
2022-09-28T22:52:56.832Z,84.53
2022-09-28T22:55:25.007Z,84.69
2022-09-28T22:57:53.167Z,84.80
2022-09-28T23:00:47.236Z,84.92
2022-09-28T23:03:16.357Z,84.94
2022-09-28T23:06:10.247Z,85.02
2022-09-28T23:08:45.859Z,84.87
2022-09-28T23:11:14.900Z,85.11
2022-09-28T23:13:50.843Z,85.18
2022-09-28T23:16:19.732Z,85.19
2022-09-28T23:19:37.568Z,85.25
2022-09-28T23:22:55.748Z,85.34
2022-09-28T23:25:23.892Z,85.55
2022-09-28T23:27:51.999Z,85.47
2022-09-28T23:30:21.430Z,85.46
2022-09-28T23:32:52.316Z,85.66
2022-09-28T23:35:20.553Z,85.63
2022-09-28T23:37:51.923Z,85.65
2022-09-28T23:40:20.157Z,85.77
2022-09-28T23:42:48.339Z,85.86
2022-09-28T23:45:45.876Z,85.93
2022-09-28T23:48:15.265Z,85.92
2022-09-28T23:50:44.512Z,86.01
2022-09-28T23:53:37.728Z,85.93
2022-09-28T23:56:06.284Z,85.96
2022-09-28T23:58:34.640Z,85.62
